sensor_id;sensor_type;location;lat;lon;timestamp;pressure;altitude;pressure_sealevel;temperature;humidity
79309;BME280;68767;53.078;7.386;2024-02-21T00:00:41;102250.84;;;8.61;100.00
79309;BME280;68767;53.078;7.386;2024-02-21T00:03:08;102250.56;;;8.62;100.00
79309;BME280;68767;53.078;7.386;2024-02-21T00:05:35;102262.88;;;8.63;100.00
79309;BME280;68767;53.078;7.386;2024-02-21T00:08:02;102257.78;;;8.62;100.00
79309;BME280;68767;53.078;7.386;2024-02-21T00:10:32;102251.34;;;8.63;100.00
79309;BME280;68767;53.078;7.386;2024-02-21T00:12:59;102244.66;;;8.65;100.00
79309;BME280;68767;53.078;7.386;2024-02-21T00:15:26;102247.84;;;8.67;100.00
79309;BME280;68767;53.078;7.386;2024-02-21T00:17:53;102246.53;;;8.65;100.00
79309;BME280;68767;53.078;7.386;2024-02-21T00:20:20;102250.53;;;8.67;100.00
79309;BME280;68767;53.078;7.386;2024-02-21T00:22:47;102245.19;;;8.67;100.00
79309;BME280;68767;53.078;7.386;2024-02-21T00:25:15;102236.88;;;8.64;100.00
79309;BME280;68767;53.078;7.386;2024-02-21T00:27:42;102241.44;;;8.63;100.00
79309;BME280;68767;53.078;7.386;2024-02-21T00:30:09;102232.84;;;8.66;100.00
79309;BME280;68767;53.078;7.386;2024-02-21T00:32:37;102227.22;;;8.68;100.00
79309;BME280;68767;53.078;7.386;2024-02-21T00:35:04;102220.00;;;8.63;100.00
79309;BME280;68767;53.078;7.386;2024-02-21T00:37:31;102220.00;;;8.63;100.00
79309;BME280;68767;53.078;7.386;2024-02-21T00:39:58;102208.50;;;8.63;100.00
79309;BME280;68767;53.078;7.386;2024-02-21T00:42:25;102224.28;;;8.64;100.00
79309;BME280;68767;53.078;7.386;2024-02-21T00:44:52;102230.19;;;8.66;100.00
79309;BME280;68767;53.078;7.386;2024-02-21T00:47:19;102225.34;;;8.68;100.00
79309;BME280;68767;53.078;7.386;2024-02-21T00:49:46;102206.06;;;8.66;100.00
79309;BME280;68767;53.078;7.386;2024-02-21T00:52:13;102201.25;;;8.63;100.00
79309;BME280;68767;53.078;7.386;2024-02-21T00:54:40;102203.94;;;8.58;100.00
79309;BME280;68767;53.078;7.386;2024-02-21T00:57:19;102195.66;;;8.55;100.00
79309;BME280;68767;53.078;7.386;2024-02-21T00:59:46;102191.09;;;8.50;100.00
79309;BME280;68767;53.078;7.386;2024-02-21T01:02:13;102186.81;;;8.49;100.00
79309;BME280;68767;53.078;7.386;2024-02-21T01:04:40;102183.59;;;8.42;100.00
79309;BME280;68767;53.078;7.386;2024-02-21T01:07:08;102170.47;;;8.40;100.00
79309;BME280;68767;53.078;7.386;2024-02-21T01:09:35;102144.72;;;8.34;100.00
79309;BME280;68767;53.078;7.386;2024-02-21T01:12:01;102151.97;;;8.34;100.00
79309;BME280;68767;53.078;7.386;2024-02-21T01:14:28;102154.91;;;8.32;100.00
79309;BME280;68767;53.078;7.386;2024-02-21T01:16:56;102161.34;;;8.31;100.00
79309;BME280;68767;53.078;7.386;2024-02-21T01:19:23;102145.00;;;8.33;100.00
79309;BME280;68767;53.078;7.386;2024-02-21T01:21:50;102150.69;;;8.36;100.00
79309;BME280;68767;53.078;7.386;2024-02-21T01:24:17;102141.84;;;8.36;100.00
79309;BME280;68767;53.078;7.386;2024-02-21T01:26:44;102131.13;;;8.36;100.00
79309;BME280;68767;53.078;7.386;2024-02-21T01:29:11;102128.19;;;8.37;100.00
79309;BME280;68767;53.078;7.386;2024-02-21T01:31:38;102124.16;;;8.40;100.00
79309;BME280;68767;53.078;7.386;2024-02-21T01:34:05;102121.72;;;8.43;100.00
79309;BME280;68767;53.078;7.386;2024-02-21T01:36:33;102102.72;;;8.45;100.00
79309;BME280;68767;53.078;7.386;2024-02-21T01:39:00;102095.78;;;8.44;100.00
79309;BME280;68767;53.078;7.386;2024-02-21T01:41:30;102102.97;;;8.49;100.00
79309;BME280;68767;53.078;7.386;2024-02-21T01:43:57;102107.53;;;8.48;100.00
79309;BME280;68767;53.078;7.386;2024-02-21T01:46:24;102106.97;;;8.51;100.00
79309;BME280;68767;53.078;7.386;2024-02-21T01:48:56;102103.22;;;8.52;100.00
79309;BME280;68767;53.078;7.386;2024-02-21T01:51:24;102104.84;;;8.53;100.00
79309;BME280;68767;53.078;7.386;2024-02-21T01:53:53;102105.91;;;8.52;100.00
79309;BME280;68767;53.078;7.386;2024-02-21T01:56:22;102117.16;;;8.54;100.00
79309;BME280;68767;53.078;7.386;2024-02-21T01:58:49;102124.66;;;8.57;100.00
79309;BME280;68767;53.078;7.386;2024-02-21T02:01:17;102122.78;;;8.63;100.00
79309;BME280;68767;53.078;7.386;2024-02-21T02:03:48;102124.09;;;8.65;100.00
79309;BME280;68767;53.078;7.386;2024-02-21T02:06:16;102122.50;;;8.64;100.00
79309;BME280;68767;53.078;7.386;2024-02-21T02:08:44;102121.41;;;8.65;100.00
79309;BME280;68767;53.078;7.386;2024-02-21T02:11:13;102113.94;;;8.62;100.00
79309;BME280;68767;53.078;7.386;2024-02-21T02:13:40;102108.84;;;8.61;100.00
79309;BME280;68767;53.078;7.386;2024-02-21T02:16:07;102105.91;;;8.62;100.00
79309;BME280;68767;53.078;7.386;2024-02-21T02:18:35;102097.06;;;8.62;100.00
79309;BME280;68767;53.078;7.386;2024-02-21T02:21:05;102101.63;;;8.61;100.00
79309;BME280;68767;53.078;7.386;2024-02-21T02:23:36;102099.75;;;8.62;100.00
79309;BME280;68767;53.078;7.386;2024-02-21T02:26:03;102104.53;;;8.60;100.00
79309;BME280;68767;53.078;7.386;2024-02-21T02:28:30;102101.09;;;8.49;100.00
79309;BME280;68767;53.078;7.386;2024-02-21T02:30:57;102098.72;;;8.37;100.00
79309;BME280;68767;53.078;7.386;2024-02-21T02:33:24;102110.47;;;8.26;100.00
79309;BME280;68767;53.078;7.386;2024-02-21T02:35:51;102101.09;;;8.24;100.00
79309;BME280;68767;53.078;7.386;2024-02-21T02:38:18;102111.03;;;8.23;100.00
79309;BME280;68767;53.078;7.386;2024-02-21T02:40:45;102106.22;;;8.15;100.00
79309;BME280;68767;53.078;7.386;2024-02-21T02:43:12;102102.72;;;8.09;100.00
79309;BME280;68767;53.078;7.386;2024-02-21T02:45:40;102108.63;;;8.06;100.00
79309;BME280;68767;53.078;7.386;2024-02-21T02:48:07;102107.28;;;7.99;100.00
79309;BME280;68767;53.078;7.386;2024-02-21T02:50:34;102110.78;;;8.04;100.00
79309;BME280;68767;53.078;7.386;2024-02-21T02:53:01;102111.56;;;8.05;100.00
79309;BME280;68767;53.078;7.386;2024-02-21T02:55:28;102112.09;;;8.02;100.00
79309;BME280;68767;53.078;7.386;2024-02-21T02:57:55;102112.91;;;7.97;100.00
79309;BME280;68767;53.078;7.386;2024-02-21T03:00:22;102111.03;;;7.98;100.00
79309;BME280;68767;53.078;7.386;2024-02-21T03:02:49;102109.44;;;7.97;100.00
79309;BME280;68767;53.078;7.386;2024-02-21T03:05:20;102097.66;;;7.98;100.00
79309;BME280;68767;53.078;7.386;2024-02-21T03:07:48;102090.97;;;7.95;100.00
79309;BME280;68767;53.078;7.386;2024-02-21T03:10:16;102093.88;;;7.94;100.00
79309;BME280;68767;53.078;7.386;2024-02-21T03:12:44;102094.69;;;7.94;100.00
79309;BME280;68767;53.078;7.386;2024-02-21T03:15:13;102096.06;;;7.97;100.00
79309;BME280;68767;53.078;7.386;2024-02-21T03:17:41;102086.41;;;7.96;100.00
79309;BME280;68767;53.078;7.386;2024-02-21T03:20:08;102091.22;;;7.94;100.00
79309;BME280;68767;53.078;7.386;2024-02-21T03:22:38;102085.34;;;7.92;100.00
79309;BME280;68767;53.078;7.386;2024-02-21T03:25:07;102090.41;;;7.93;100.00
79309;BME280;68767;53.078;7.386;2024-02-21T03:27:34;102081.31;;;7.94;100.00
79309;BME280;68767;53.078;7.386;2024-02-21T03:30:01;102080.25;;;7.90;100.00
79309;BME280;68767;53.078;7.386;2024-02-21T03:32:28;102074.63;;;7.92;100.00
79309;BME280;68767;53.078;7.386;2024-02-21T03:34:56;102077.03;;;7.93;100.00
79309;BME280;68767;53.078;7.386;2024-02-21T03:37:23;102079.97;;;7.92;100.00
79309;BME280;68767;53.078;7.386;2024-02-21T03:39:50;102082.13;;;7.89;100.00
79309;BME280;68767;53.078;7.386;2024-02-21T03:42:17;102084.53;;;7.91;100.00
79309;BME280;68767;53.078;7.386;2024-02-21T03:44:44;102068.22;;;7.93;100.00
79309;BME280;68767;53.078;7.386;2024-02-21T03:47:11;102079.47;;;7.95;100.00
79309;BME280;68767;53.078;7.386;2024-02-21T03:49:39;102079.97;;;7.92;100.00
79309;BME280;68767;53.078;7.386;2024-02-21T03:52:06;102086.13;;;7.92;100.00
79309;BME280;68767;53.078;7.386;2024-02-21T03:54:33;102074.91;;;7.95;100.00
79309;BME280;68767;53.078;7.386;2024-02-21T03:57:00;102077.03;;;7.98;100.00
79309;BME280;68767;53.078;7.386;2024-02-21T03:59:27;102075.16;;;7.99;100.00
79309;BME280;68767;53.078;7.386;2024-02-21T04:01:55;102073.84;;;7.96;100.00
79309;BME280;68767;53.078;7.386;2024-02-21T04:04:22;102076.53;;;7.96;100.00
79309;BME280;68767;53.078;7.386;2024-02-21T04:06:50;102075.16;;;7.94;100.00
79309;BME280;68767;53.078;7.386;2024-02-21T04:09:17;102076.50;;;7.91;100.00
79309;BME280;68767;53.078;7.386;2024-02-21T04:11:45;102079.72;;;7.93;100.00
79309;BME280;68767;53.078;7.386;2024-02-21T04:14:12;102074.63;;;7.92;100.00
79309;BME280;68767;53.078;7.386;2024-02-21T04:16:39;102074.38;;;7.93;100.00
79309;BME280;68767;53.078;7.386;2024-02-21T04:19:07;102066.34;;;7.93;100.00
79309;BME280;68767;53.078;7.386;2024-02-21T04:21:35;102063.13;;;7.96;100.00
79309;BME280;68767;53.078;7.386;2024-02-21T04:24:03;102060.19;;;7.98;100.00
79309;BME280;68767;53.078;7.386;2024-02-21T04:26:33;102065.25;;;7.99;100.00
79309;BME280;68767;53.078;7.386;2024-02-21T04:29:01;102061.25;;;7.97;100.00
79309;BME280;68767;53.078;7.386;2024-02-21T04:31:28;102060.47;;;7.96;100.00
79309;BME280;68767;53.078;7.386;2024-02-21T04:33:56;102059.66;;;7.96;100.00
79309;BME280;68767;53.078;7.386;2024-02-21T04:36:23;102058.06;;;7.95;100.00
79309;BME280;68767;53.078;7.386;2024-02-21T04:38:51;102055.63;;;7.93;100.00
79309;BME280;68767;53.078;7.386;2024-02-21T04:41:18;102054.31;;;7.96;100.00
79309;BME280;68767;53.078;7.386;2024-02-21T04:43:48;102047.34;;;7.95;100.00
79309;BME280;68767;53.078;7.386;2024-02-21T04:46:15;102055.38;;;7.89;100.00
79309;BME280;68767;53.078;7.386;2024-02-21T04:48:42;102063.66;;;7.93;100.00
79309;BME280;68767;53.078;7.386;2024-02-21T04:51:11;102064.22;;;7.95;100.00
79309;BME280;68767;53.078;7.386;2024-02-21T04:53:38;102049.75;;;7.91;100.00
79309;BME280;68767;53.078;7.386;2024-02-21T04:56:06;102054.56;;;7.94;100.00
79309;BME280;68767;53.078;7.386;2024-02-21T04:58:33;102047.06;;;7.91;100.00
79309;BME280;68767;53.078;7.386;2024-02-21T05:01:00;102045.72;;;7.94;100.00
79309;BME280;68767;53.078;7.386;2024-02-21T05:03:27;102046.28;;;7.96;100.00
79309;BME280;68767;53.078;7.386;2024-02-21T05:05:54;102047.34;;;7.95;100.00
79309;BME280;68767;53.078;7.386;2024-02-21T05:08:21;102045.72;;;7.99;100.00
79309;BME280;68767;53.078;7.386;2024-02-21T05:10:48;102032.63;;;7.97;100.00
79309;BME280;68767;53.078;7.386;2024-02-21T05:13:15;102024.59;;;7.97;100.00
79309;BME280;68767;53.078;7.386;2024-02-21T05:15:42;102022.44;;;7.99;100.00
79309;BME280;68767;53.078;7.386;2024-02-21T05:18:09;102016.31;;;7.99;100.00
79309;BME280;68767;53.078;7.386;2024-02-21T05:20:36;102025.69;;;7.96;100.00
79309;BME280;68767;53.078;7.386;2024-02-21T05:23:03;102023.25;;;8.00;100.00
79309;BME280;68767;53.078;7.386;2024-02-21T05:25:31;102016.03;;;8.00;100.00
79309;BME280;68767;53.078;7.386;2024-02-21T05:27:58;102020.84;;;7.93;100.00
79309;BME280;68767;53.078;7.386;2024-02-21T05:30:29;102017.09;;;7.94;100.00
79309;BME280;68767;53.078;7.386;2024-02-21T05:32:56;102018.72;;;7.95;100.00
79309;BME280;68767;53.078;7.386;2024-02-21T05:35:27;102016.56;;;7.97;100.00
79309;BME280;68767;53.078;7.386;2024-02-21T05:37:57;102010.69;;;7.95;100.00
79309;BME280;68767;53.078;7.386;2024-02-21T05:40:26;102008.53;;;7.97;100.00
79309;BME280;68767;53.078;7.386;2024-02-21T05:42:53;102013.63;;;7.99;100.00
79309;BME280;68767;53.078;7.386;2024-02-21T05:45:20;102013.63;;;7.99;100.00
79309;BME280;68767;53.078;7.386;2024-02-21T05:47:47;102013.34;;;8.00;100.00
79309;BME280;68767;53.078;7.386;2024-02-21T05:50:14;102010.69;;;7.95;100.00
79309;BME280;68767;53.078;7.386;2024-02-21T05:52:41;102010.66;;;8.00;100.00
79309;BME280;68767;53.078;7.386;2024-02-21T05:55:08;102013.63;;;7.99;100.00
79309;BME280;68767;53.078;7.386;2024-02-21T05:57:35;102011.50;;;7.96;100.00
79309;BME280;68767;53.078;7.386;2024-02-21T06:00:04;102010.41;;;7.97;100.00
79309;BME280;68767;53.078;7.386;2024-02-21T06:02:37;102007.47;;;7.93;100.00
79309;BME280;68767;53.078;7.386;2024-02-21T06:05:04;102009.63;;;7.96;100.00
79309;BME280;68767;53.078;7.386;2024-02-21T06:07:34;102015.50;;;7.98;100.00
79309;BME280;68767;53.078;7.386;2024-02-21T06:10:02;102007.19;;;8.00;100.00
79309;BME280;68767;53.078;7.386;2024-02-21T06:12:29;102003.19;;;7.97;100.00
79309;BME280;68767;53.078;7.386;2024-02-21T06:14:56;101995.97;;;7.98;100.00
79309;BME280;68767;53.078;7.386;2024-02-21T06:17:23;101997.31;;;7.95;100.00
79309;BME280;68767;53.078;7.386;2024-02-21T06:19:50;101982.06;;;7.96;100.00
79309;BME280;68767;53.078;7.386;2024-02-21T06:22:17;101976.72;;;7.96;100.00
79309;BME280;68767;53.078;7.386;2024-02-21T06:24:44;101972.97;;;7.97;100.00
79309;BME280;68767;53.078;7.386;2024-02-21T06:27:12;101973.75;;;7.97;100.00
79309;BME280;68767;53.078;7.386;2024-02-21T06:29:41;101971.34;;;7.96;100.00
79309;BME280;68767;53.078;7.386;2024-02-21T06:32:08;101967.59;;;7.97;100.00
79309;BME280;68767;53.078;7.386;2024-02-21T06:34:35;101967.09;;;7.95;100.00
79309;BME280;68767;53.078;7.386;2024-02-21T06:37:02;101965.72;;;7.97;100.00
79309;BME280;68767;53.078;7.386;2024-02-21T06:39:30;101972.16;;;7.96;100.00
79309;BME280;68767;53.078;7.386;2024-02-21T06:41:57;101963.59;;;7.99;100.00
79309;BME280;68767;53.078;7.386;2024-02-21T06:44:29;101972.97;;;7.97;100.00
79309;BME280;68767;53.078;7.386;2024-02-21T06:46:56;101976.97;;;7.99;100.00
79309;BME280;68767;53.078;7.386;2024-02-21T06:49:23;101965.44;;;7.99;100.00
79309;BME280;68767;53.078;7.386;2024-02-21T06:51:51;101965.22;;;7.95;100.00
79309;BME280;68767;53.078;7.386;2024-02-21T06:54:18;101966.25;;;7.99;100.00
79309;BME280;68767;53.078;7.386;2024-02-21T06:56:45;101966.81;;;7.96;100.00
79309;BME280;68767;53.078;7.386;2024-02-21T06:59:12;101962.25;;;7.97;100.00
79309;BME280;68767;53.078;7.386;2024-02-21T07:01:48;101967.09;;;7.95;100.00
79309;BME280;68767;53.078;7.386;2024-02-21T07:04:15;101972.97;;;7.92;100.00
79309;BME280;68767;53.078;7.386;2024-02-21T07:06:42;101972.44;;;7.95;100.00
79309;BME280;68767;53.078;7.386;2024-02-21T07:09:09;101970.81;;;7.94;100.00
79309;BME280;68767;53.078;7.386;2024-02-21T07:11:36;101983.09;;;8.00;100.00
79309;BME280;68767;53.078;7.386;2024-02-21T07:14:03;101982.59;;;8.03;100.00
79309;BME280;68767;53.078;7.386;2024-02-21T07:16:30;101982.31;;;8.04;100.00
79309;BME280;68767;53.078;7.386;2024-02-21T07:19:00;101985.78;;;8.00;100.00
79309;BME280;68767;53.078;7.386;2024-02-21T07:21:27;101980.72;;;7.98;100.00
79309;BME280;68767;53.078;7.386;2024-02-21T07:23:54;101976.97;;;7.99;100.00
79309;BME280;68767;53.078;7.386;2024-02-21T07:26:21;101975.09;;;8.00;100.00
79309;BME280;68767;53.078;7.386;2024-02-21T07:28:48;101972.69;;;7.98;100.00
79309;BME280;68767;53.078;7.386;2024-02-21T07:31:16;101973.47;;;7.99;100.00
79309;BME280;68767;53.078;7.386;2024-02-21T07:33:43;101976.97;;;7.99;100.00
79309;BME280;68767;53.078;7.386;2024-02-21T07:36:10;101972.69;;;7.98;100.00
79309;BME280;68767;53.078;7.386;2024-02-21T07:38:38;101970.56;;;7.95;100.00
79309;BME280;68767;53.078;7.386;2024-02-21T07:41:05;101976.16;;;7.99;100.00
79309;BME280;68767;53.078;7.386;2024-02-21T07:43:32;101955.31;;;7.96;100.00
79309;BME280;68767;53.078;7.386;2024-02-21T07:45:59;101959.59;;;7.97;100.00
79309;BME280;68767;53.078;7.386;2024-02-21T07:48:26;101960.34;;;8.02;100.00
79309;BME280;68767;53.078;7.386;2024-02-21T07:50:53;101946.44;;;8.05;100.00
79309;BME280;68767;53.078;7.386;2024-02-21T07:53:20;101944.81;;;8.09;100.00
79309;BME280;68767;53.078;7.386;2024-02-21T07:55:48;101939.75;;;8.08;100.00
79309;BME280;68767;53.078;7.386;2024-02-21T07:58:15;101935.97;;;8.09;100.00
79309;BME280;68767;53.078;7.386;2024-02-21T08:00:41;101942.13;;;8.09;100.00
79309;BME280;68767;53.078;7.386;2024-02-21T08:03:08;101946.97;;;8.12;100.00
79309;BME280;68767;53.078;7.386;2024-02-21T08:05:35;101942.41;;;8.13;100.00
79309;BME280;68767;53.078;7.386;2024-02-21T08:08:03;101944.00;;;8.14;100.00
79309;BME280;68767;53.078;7.386;2024-02-21T08:10:31;101935.69;;;8.15;100.00
79309;BME280;68767;53.078;7.386;2024-02-21T08:12:58;101937.28;;;8.16;100.00
79309;BME280;68767;53.078;7.386;2024-02-21T08:15:25;101924.94;;;8.26;100.00
79309;BME280;68767;53.078;7.386;2024-02-21T08:17:56;101924.44;;;8.18;100.00
79309;BME280;68767;53.078;7.386;2024-02-21T08:20:27;101927.38;;;8.22;100.00
79309;BME280;68767;53.078;7.386;2024-02-21T08:22:54;101921.50;;;8.20;100.00
79309;BME280;68767;53.078;7.386;2024-02-21T08:25:21;101921.75;;;8.24;100.00
79309;BME280;68767;53.078;7.386;2024-02-21T08:27:48;101912.69;;;8.14;100.00
79309;BME280;68767;53.078;7.386;2024-02-21T08:30:15;101922.88;;;8.12;100.00
79309;BME280;68767;53.078;7.386;2024-02-21T08:32:42;101915.91;;;8.11;100.00
79309;BME280;68767;53.078;7.386;2024-02-21T08:35:10;101922.06;;;8.12;100.00
79309;BME280;68767;53.078;7.386;2024-02-21T08:37:37;101918.38;;;8.03;100.00
79309;BME280;68767;53.078;7.386;2024-02-21T08:40:04;101921.28;;;8.06;100.00
79309;BME280;68767;53.078;7.386;2024-02-21T08:42:36;101923.97;;;8.06;100.00
79309;BME280;68767;53.078;7.386;2024-02-21T08:45:04;101922.88;;;8.02;100.00
79309;BME280;68767;53.078;7.386;2024-02-21T08:47:31;101919.16;;;7.93;100.00
79309;BME280;68767;53.078;7.386;2024-02-21T08:49:58;101914.91;;;7.92;100.00
79309;BME280;68767;53.078;7.386;2024-02-21T08:52:30;101906.63;;;7.83;100.00
79309;BME280;68767;53.078;7.386;2024-02-21T08:54:57;101911.19;;;7.83;100.00
79309;BME280;68767;53.078;7.386;2024-02-21T08:57:24;101907.44;;;7.84;100.00
79309;BME280;68767;53.078;7.386;2024-02-21T08:59:52;101902.06;;;7.84;100.00
79309;BME280;68767;53.078;7.386;2024-02-21T09:02:19;101899.41;;;7.84;100.00
79309;BME280;68767;53.078;7.386;2024-02-21T09:04:46;101897.28;;;7.81;100.00
79309;BME280;68767;53.078;7.386;2024-02-21T09:07:13;101893.53;;;7.87;100.00
79309;BME280;68767;53.078;7.386;2024-02-21T09:09:40;101888.41;;;7.91;100.00
79309;BME280;68767;53.078;7.386;2024-02-21T09:12:07;101890.28;;;7.90;100.00
79309;BME280;68767;53.078;7.386;2024-02-21T09:14:37;101890.84;;;7.87;100.00
79309;BME280;68767;53.078;7.386;2024-02-21T09:17:07;101884.69;;;7.86;100.00
79309;BME280;68767;53.078;7.386;2024-02-21T09:19:35;101884.44;;;7.83;100.00
79309;BME280;68767;53.078;7.386;2024-02-21T09:22:02;101878.56;;;7.81;100.00
79309;BME280;68767;53.078;7.386;2024-02-21T09:24:30;101868.66;;;7.86;100.00
79309;BME280;68767;53.078;7.386;2024-02-21T09:26:57;101866.50;;;7.83;100.00
79309;BME280;68767;53.078;7.386;2024-02-21T09:29:24;101867.28;;;7.84;100.00
79309;BME280;68767;53.078;7.386;2024-02-21T09:31:53;101854.72;;;7.84;100.00
79309;BME280;68767;53.078;7.386;2024-02-21T09:34:21;101855.50;;;7.90;100.00
79309;BME280;68767;53.078;7.386;2024-02-21T09:36:49;101849.88;;;7.92;100.00
79309;BME280;68767;53.078;7.386;2024-02-21T09:39:16;101852.25;;;7.98;100.00
79309;BME280;68767;53.078;7.386;2024-02-21T09:41:50;101846.91;;;8.03;100.00
79309;BME280;68767;53.078;7.386;2024-02-21T09:44:24;101837.81;;;7.99;100.00
79309;BME280;68767;53.078;7.386;2024-02-21T09:47:02;101842.06;;;8.05;100.00
79309;BME280;68767;53.078;7.386;2024-02-21T09:49:34;101846.34;;;8.01;100.00
79309;BME280;68767;53.078;7.386;2024-02-21T09:52:04;101847.16;;;8.02;100.00
79309;BME280;68767;53.078;7.386;2024-02-21T09:54:35;101845.53;;;8.11;100.00
79309;BME280;68767;53.078;7.386;2024-02-21T09:57:03;101845.25;;;8.12;100.00
79309;BME280;68767;53.078;7.386;2024-02-21T09:59:32;101844.72;;;8.10;100.00
79309;BME280;68767;53.078;7.386;2024-02-21T10:02:00;101850.59;;;8.12;100.00
79309;BME280;68767;53.078;7.386;2024-02-21T10:04:29;101843.91;;;8.10;100.00
79309;BME280;68767;53.078;7.386;2024-02-21T10:06:56;101835.09;;;8.09;100.00
79309;BME280;68767;53.078;7.386;2024-02-21T10:09:25;101841.44;;;8.18;100.00
79309;BME280;68767;53.078;7.386;2024-02-21T10:11:56;101836.09;;;8.24;100.00
79309;BME280;68767;53.078;7.386;2024-02-21T10:14:34;101818.72;;;8.21;100.00
79309;BME280;68767;53.078;7.386;2024-02-21T10:17:01;101820.53;;;8.26;100.00
79309;BME280;68767;53.078;7.386;2024-02-21T10:19:28;101804.47;;;8.31;100.00
79309;BME280;68767;53.078;7.386;2024-02-21T10:22:04;101799.31;;;8.44;100.00
79309;BME280;68767;53.078;7.386;2024-02-21T10:24:31;101793.41;;;8.42;100.00
79309;BME280;68767;53.078;7.386;2024-02-21T10:27:01;101789.03;;;8.57;100.00
79309;BME280;68767;53.078;7.386;2024-02-21T10:29:34;101775.84;;;8.65;100.00
79309;BME280;68767;53.078;7.386;2024-02-21T10:34:33;101770.66;;;8.79;100.00
79309;BME280;68767;53.078;7.386;2024-02-21T10:37:04;101752.97;;;8.78;100.00
79309;BME280;68767;53.078;7.386;2024-02-21T10:39:33;101751.94;;;8.74;100.00
79309;BME280;68767;53.078;7.386;2024-02-21T10:42:02;101742.66;;;8.90;100.00
79309;BME280;68767;53.078;7.386;2024-02-21T10:44:34;101729.59;;;8.84;100.00
79309;BME280;68767;53.078;7.386;2024-02-21T10:47:07;101719.97;;;8.83;100.00
79309;BME280;68767;53.078;7.386;2024-02-21T10:49:38;101717.56;;;8.81;100.00
79309;BME280;68767;53.078;7.386;2024-02-21T10:52:32;101703.41;;;8.76;100.00
79309;BME280;68767;53.078;7.386;2024-02-21T10:55:06;101693.28;;;8.72;100.00
79309;BME280;68767;53.078;7.386;2024-02-21T10:57:37;101688.91;;;8.82;100.00
79309;BME280;68767;53.078;7.386;2024-02-21T11:00:05;101692.09;;;8.84;100.00
79309;BME280;68767;53.078;7.386;2024-02-21T11:02:35;101675.28;;;8.78;100.00
79309;BME280;68767;53.078;7.386;2024-02-21T11:05:03;101668.88;;;8.74;100.00
79309;BME280;68767;53.078;7.386;2024-02-21T11:07:31;101663.22;;;8.76;100.00
79309;BME280;68767;53.078;7.386;2024-02-21T11:10:00;101665.88;;;8.81;100.00
79309;BME280;68767;53.078;7.386;2024-02-21T11:12:27;101670.47;;;8.75;100.00
79309;BME280;68767;53.078;7.386;2024-02-21T11:15:04;101671.63;;;8.69;100.00
79309;BME280;68767;53.078;7.386;2024-02-21T11:17:32;101659.53;;;8.71;100.00
79309;BME280;68767;53.078;7.386;2024-02-21T11:20:13;101652.81;;;8.74;100.00
79309;BME280;68767;53.078;7.386;2024-02-21T11:22:41;101640.97;;;8.80;100.00
79309;BME280;68767;53.078;7.386;2024-02-21T11:25:09;101641.75;;;8.81;100.00
79309;BME280;68767;53.078;7.386;2024-02-21T11:27:38;101641.34;;;8.92;100.00
79309;BME280;68767;53.078;7.386;2024-02-21T11:30:06;101631.59;;;9.01;100.00
79309;BME280;68767;53.078;7.386;2024-02-21T11:32:33;101629.19;;;9.00;100.00
79309;BME280;68767;53.078;7.386;2024-02-21T11:35:01;101620.94;;;8.96;100.00
79309;BME280;68767;53.078;7.386;2024-02-21T11:37:34;101622.13;;;9.09;100.00
79309;BME280;68767;53.078;7.386;2024-02-21T11:40:01;101613.72;;;9.16;100.00
79309;BME280;68767;53.078;7.386;2024-02-21T11:42:30;101608.31;;;9.21;100.00
79309;BME280;68767;53.078;7.386;2024-02-21T11:44:58;101599.84;;;9.33;100.00
79309;BME280;68767;53.078;7.386;2024-02-21T11:47:28;101585.63;;;9.32;100.00
79309;BME280;68767;53.078;7.386;2024-02-21T11:49:55;101581.16;;;9.27;100.00
79309;BME280;68767;53.078;7.386;2024-02-21T11:52:25;101570.78;;;9.21;100.00
79309;BME280;68767;53.078;7.386;2024-02-21T11:54:54;101562.22;;;9.19;100.00
79309;BME280;68767;53.078;7.386;2024-02-21T11:57:23;101553.91;;;9.20;100.00
79309;BME280;68767;53.078;7.386;2024-02-21T11:59:53;101548.81;;;9.38;100.00
79309;BME280;68767;53.078;7.386;2024-02-21T12:02:26;101547.88;;;9.47;100.00
79309;BME280;68767;53.078;7.386;2024-02-21T12:04:54;101540.91;;;9.46;100.00
79309;BME280;68767;53.078;7.386;2024-02-21T12:07:21;101533.78;;;9.55;100.00
79309;BME280;68767;53.078;7.386;2024-02-21T12:09:51;101514.47;;;9.40;100.00
79309;BME280;68767;53.078;7.386;2024-02-21T12:12:20;101502.34;;;9.42;100.00
79309;BME280;68767;53.078;7.386;2024-02-21T12:14:55;101488.94;;;9.42;100.00
79309;BME280;68767;53.078;7.386;2024-02-21T12:17:22;101492.41;;;9.43;100.00
79309;BME280;68767;53.078;7.386;2024-02-21T12:19:50;101486.63;;;9.36;100.00
79309;BME280;68767;53.078;7.386;2024-02-21T12:22:18;101473.91;;;9.27;100.00
79309;BME280;68767;53.078;7.386;2024-02-21T12:24:45;101471.91;;;9.33;100.00
79309;BME280;68767;53.078;7.386;2024-02-21T12:27:15;101465.19;;;9.36;100.00
79309;BME280;68767;53.078;7.386;2024-02-21T12:29:43;101467.66;;;9.32;100.00
79309;BME280;68767;53.078;7.386;2024-02-21T12:32:10;101462.91;;;9.43;100.00
79309;BME280;68767;53.078;7.386;2024-02-21T12:34:37;101436.91;;;9.43;100.00
79309;BME280;68767;53.078;7.386;2024-02-21T12:37:19;101433.31;;;9.48;100.00
79309;BME280;68767;53.078;7.386;2024-02-21T12:39:48;101417.84;;;9.45;100.00
79309;BME280;68767;53.078;7.386;2024-02-21T12:42:15;101400.44;;;9.42;100.00
79309;BME280;68767;53.078;7.386;2024-02-21T12:44:42;101400.22;;;9.39;100.00
79309;BME280;68767;53.078;7.386;2024-02-21T12:47:10;101392.56;;;9.32;100.00
79309;BME280;68767;53.078;7.386;2024-02-21T12:49:37;101385.66;;;9.45;100.00
79309;BME280;68767;53.078;7.386;2024-02-21T12:52:10;101376.50;;;9.46;100.00
79309;BME280;68767;53.078;7.386;2024-02-21T12:54:38;101370.84;;;9.47;100.00
79309;BME280;68767;53.078;7.386;2024-02-21T12:57:05;101362.31;;;9.45;100.00